createdAt,value
2023-04-02T00:00:20.464Z,413.00
2023-04-02T00:00:50.562Z,413.00
2023-04-02T00:01:20.674Z,412.00
2023-04-02T00:01:50.837Z,411.00
2023-04-02T00:02:20.904Z,413.00
2023-04-02T00:02:50.895Z,412.00
2023-04-02T00:03:21.072Z,412.00
2023-04-02T00:03:51.127Z,413.00
2023-04-02T00:04:21.183Z,415.00
2023-04-02T00:04:51.258Z,414.00
2023-04-02T00:05:21.358Z,413.00
2023-04-02T00:05:51.592Z,412.00
2023-04-02T00:06:21.470Z,414.00
2023-04-02T00:06:51.514Z,414.00
2023-04-02T00:07:21.591Z,413.00
2023-04-02T00:07:51.662Z,413.00
2023-04-02T00:08:21.738Z,411.00
2023-04-02T00:08:51.825Z,410.00
2023-04-02T00:09:21.901Z,410.00
2023-04-02T00:09:51.977Z,412.00
2023-04-02T00:10:22.052Z,412.00
2023-04-02T00:10:52.133Z,414.00
2023-04-02T00:11:22.194Z,416.00
2023-04-02T00:11:52.274Z,416.00
2023-04-02T00:12:22.350Z,418.00
2023-04-02T00:12:52.462Z,417.00
2023-04-02T00:13:22.578Z,415.00
2023-04-02T00:13:52.710Z,416.00
2023-04-02T00:14:22.715Z,416.00
2023-04-02T00:14:52.810Z,415.00
2023-04-02T00:15:22.960Z,417.00
2023-04-02T00:15:52.922Z,417.00
2023-04-02T00:16:23.057Z,416.00
2023-04-02T00:16:53.119Z,416.00
2023-04-02T00:17:23.127Z,417.00
2023-04-02T00:17:53.306Z,418.00
2023-04-02T00:18:23.315Z,418.00
2023-04-02T00:18:53.301Z,417.00
2023-04-02T00:19:23.293Z,418.00
2023-04-02T00:19:53.404Z,417.00
2023-04-02T00:20:23.519Z,418.00
2023-04-02T00:20:53.634Z,421.00
2023-04-02T00:21:23.741Z,422.00
2023-04-02T00:21:53.757Z,421.00
2023-04-02T00:22:23.865Z,420.00
2023-04-02T00:22:53.982Z,419.00
2023-04-02T00:23:24.092Z,415.00
2023-04-02T00:23:54.221Z,417.00
2023-04-02T00:24:24.202Z,418.00
2023-04-02T00:24:54.315Z,418.00
2023-04-02T00:25:24.424Z,418.00
2023-04-02T00:25:54.423Z,418.00
2023-04-02T00:26:24.552Z,419.00
2023-04-02T00:26:54.641Z,420.00
2023-04-02T00:27:24.873Z,421.00
2023-04-02T00:27:54.829Z,420.00
2023-04-02T00:28:24.980Z,419.00
2023-04-02T00:28:55.093Z,420.00
2023-04-02T00:29:25.074Z,419.00
2023-04-02T00:29:55.190Z,418.00
2023-04-02T00:30:25.326Z,419.00
2023-04-02T00:30:55.418Z,420.00
2023-04-02T00:31:25.564Z,421.00
2023-04-02T00:31:55.598Z,421.00
2023-04-02T00:32:25.591Z,420.00
2023-04-02T00:32:55.762Z,420.00
2023-04-02T00:33:25.759Z,418.00
2023-04-02T00:33:55.923Z,419.00
2023-04-02T00:34:25.888Z,420.00
2023-04-02T00:34:56.014Z,420.00
2023-04-02T00:35:26.138Z,418.00
2023-04-02T00:35:56.209Z,416.00
2023-04-02T00:36:26.192Z,415.00
2023-04-02T00:36:56.180Z,414.00
2023-04-02T00:37:26.299Z,415.00
2023-04-02T00:37:56.432Z,415.00
2023-04-02T00:38:26.512Z,416.00
2023-04-02T00:38:56.636Z,414.00
2023-04-02T00:39:26.629Z,415.00
2023-04-02T00:39:56.743Z,412.00
2023-04-02T00:40:26.847Z,412.00
2023-04-02T00:40:56.962Z,412.00
2023-04-02T00:41:27.073Z,410.00
2023-04-02T00:41:57.178Z,409.00
2023-04-02T00:42:27.296Z,409.00
2023-04-02T00:42:57.405Z,410.00
2023-04-02T00:43:27.527Z,410.00
2023-04-02T00:43:57.527Z,410.00
2023-04-02T00:44:57.581Z,409.00
2023-04-02T00:45:27.693Z,409.00
2023-04-02T00:45:57.879Z,411.00
2023-04-02T00:46:27.981Z,410.00
2023-04-02T00:46:57.973Z,410.00
2023-04-02T00:47:28.113Z,412.00
2023-04-02T00:47:58.227Z,413.00
2023-04-02T00:48:28.203Z,413.00
2023-04-02T00:48:58.347Z,413.00
2023-04-02T00:49:28.328Z,411.00
2023-04-02T00:49:58.440Z,409.00
2023-04-02T00:50:28.551Z,410.00
2023-04-02T00:50:58.666Z,409.00
2023-04-02T00:51:28.778Z,410.00
2023-04-02T00:51:58.886Z,409.00
2023-04-02T00:52:29.001Z,408.00
2023-04-02T00:52:58.995Z,408.00
2023-04-02T00:53:29.107Z,408.00
2023-04-02T00:53:59.233Z,409.00
2023-04-02T00:54:29.218Z,411.00
2023-04-02T00:54:59.330Z,407.00
2023-04-02T00:55:29.444Z,405.00
2023-04-02T00:55:59.557Z,405.00
2023-04-02T00:56:29.670Z,407.00
2023-04-02T00:56:59.868Z,407.00
2023-04-02T00:57:29.983Z,409.00
2023-04-02T00:57:59.991Z,410.00
2023-04-02T00:58:30.104Z,410.00
2023-04-02T00:59:00.248Z,410.00
2023-04-02T00:59:30.243Z,411.00
2023-04-02T01:00:30.295Z,412.00
2023-04-02T01:01:00.428Z,411.00
2023-04-02T01:01:30.585Z,410.00
2023-04-02T01:02:00.603Z,409.00
2023-04-02T01:02:30.820Z,410.00
2023-04-02T01:03:00.849Z,409.00
2023-04-02T01:03:31.020Z,410.00
2023-04-02T01:04:01.005Z,410.00
2023-04-02T01:04:31.078Z,413.00
2023-04-02T01:05:01.158Z,413.00
2023-04-02T01:05:31.228Z,415.00
2023-04-02T01:06:01.277Z,415.00
2023-04-02T01:06:31.347Z,416.00
2023-04-02T01:07:01.419Z,416.00
2023-04-02T01:07:31.492Z,415.00
2023-04-02T01:08:01.563Z,413.00
2023-04-02T01:08:31.635Z,412.00
2023-04-02T01:09:01.724Z,411.00
2023-04-02T01:09:31.799Z,411.00
2023-04-02T01:10:01.881Z,411.00
2023-04-02T01:10:31.951Z,412.00
2023-04-02T01:11:02.021Z,412.00
2023-04-02T01:11:32.093Z,414.00
2023-04-02T01:12:02.192Z,416.00
2023-04-02T01:12:32.291Z,417.00
2023-04-02T01:13:02.392Z,416.00
2023-04-02T01:13:32.514Z,416.00
2023-04-02T01:14:02.674Z,417.00
2023-04-02T01:14:32.706Z,414.00
2023-04-02T01:15:02.706Z,414.00
2023-04-02T01:15:32.982Z,412.00
2023-04-02T01:16:02.914Z,411.00
2023-04-02T01:16:33.064Z,411.00
2023-04-02T01:17:02.982Z,410.00
2023-04-02T01:17:33.108Z,410.00
2023-04-02T01:18:03.124Z,411.00
2023-04-02T01:18:33.122Z,411.00
2023-04-02T01:19:03.240Z,410.00
2023-04-02T01:19:33.230Z,413.00
2023-04-02T01:20:03.342Z,414.00
2023-04-02T01:20:33.453Z,414.00
2023-04-02T01:21:03.566Z,413.00
2023-04-02T01:21:33.681Z,410.00
2023-04-02T01:22:03.793Z,409.00
2023-04-02T01:22:33.910Z,408.00
2023-04-02T01:23:04.028Z,410.00
2023-04-02T01:23:34.136Z,410.00
2023-04-02T01:24:04.262Z,409.00
2023-04-02T01:24:34.250Z,407.00
2023-04-02T01:25:04.379Z,406.00
2023-04-02T01:25:34.774Z,407.00
2023-04-02T01:26:04.478Z,408.00
2023-04-02T01:26:34.595Z,409.00
2023-04-02T01:27:04.582Z,411.00
2023-04-02T01:27:34.705Z,413.00
2023-04-02T01:28:04.812Z,414.00
2023-04-02T01:28:34.926Z,409.00
2023-04-02T01:29:05.039Z,407.00
2023-04-02T01:29:35.157Z,409.00
2023-04-02T01:30:05.272Z,408.00
2023-04-02T01:30:35.385Z,409.00
2023-04-02T01:31:05.536Z,410.00
2023-04-02T01:31:35.609Z,411.00
2023-04-02T01:32:05.592Z,412.00
2023-04-02T01:32:35.771Z,413.00
2023-04-02T01:33:05.832Z,412.00
2023-04-02T01:33:35.860Z,412.00
2023-04-02T01:34:05.846Z,414.00
2023-04-02T01:34:35.962Z,413.00
2023-04-02T01:35:05.960Z,412.00
2023-04-02T01:35:36.311Z,413.00
2023-04-02T01:36:06.194Z,413.00
2023-04-02T01:36:36.214Z,413.00
2023-04-02T01:37:06.315Z,413.00
2023-04-02T01:37:36.421Z,412.00
2023-04-02T01:38:06.529Z,412.00
2023-04-02T01:38:36.647Z,413.00
2023-04-02T01:39:06.770Z,414.00
2023-04-02T01:39:36.867Z,413.00
2023-04-02T01:40:06.989Z,414.00
2023-04-02T01:40:37.105Z,414.00
2023-04-02T01:41:07.212Z,415.00
2023-04-02T01:41:37.334Z,416.00
2023-04-02T01:42:07.448Z,416.00
2023-04-02T01:42:37.578Z,416.00
2023-04-02T01:43:07.670Z,417.00
2023-04-02T01:43:37.790Z,418.00
2023-04-02T01:44:07.928Z,416.00
2023-04-02T01:44:37.897Z,415.00
2023-04-02T01:45:08.018Z,414.00
2023-04-02T01:45:38.137Z,414.00
2023-04-02T01:46:08.274Z,414.00
2023-04-02T01:46:38.354Z,415.00
2023-04-02T01:47:08.264Z,415.00
2023-04-02T01:47:38.432Z,415.00
2023-04-02T01:48:08.444Z,414.00
2023-04-02T01:48:38.549Z,415.00
2023-04-02T01:49:08.535Z,415.00
2023-04-02T01:49:38.652Z,414.00
2023-04-02T01:50:08.765Z,415.00
2023-04-02T01:50:38.894Z,413.00
2023-04-02T01:51:08.988Z,414.00
2023-04-02T01:51:39.103Z,412.00
2023-04-02T01:52:09.112Z,411.00
2023-04-02T01:52:39.226Z,409.00
2023-04-02T01:53:09.342Z,410.00
2023-04-02T01:53:39.465Z,408.00
2023-04-02T01:54:09.571Z,409.00
2023-04-02T01:54:39.682Z,408.00
2023-04-02T01:55:09.801Z,407.00
2023-04-02T01:55:39.921Z,409.00
2023-04-02T01:56:10.017Z,409.00
2023-04-02T01:56:40.131Z,412.00
2023-04-02T01:57:10.310Z,412.00
2023-04-02T01:57:40.262Z,413.00
2023-04-02T01:58:10.384Z,415.00
2023-04-02T01:58:40.494Z,414.00
2023-04-02T01:59:10.609Z,415.00
2023-04-02T01:59:40.733Z,414.00
2023-04-02T02:00:10.949Z,415.00
2023-04-02T02:00:40.960Z,416.00
2023-04-02T02:01:10.983Z,415.00
2023-04-02T02:01:41.022Z,417.00
2023-04-02T02:02:11.008Z,417.00
2023-04-02T02:02:41.154Z,418.00
2023-04-02T02:03:11.099Z,418.00
2023-04-02T02:03:41.063Z,419.00
2023-04-02T02:04:11.222Z,418.00
2023-04-02T02:04:41.171Z,417.00
2023-04-02T02:05:11.234Z,415.00
2023-04-02T02:05:41.314Z,415.00
2023-04-02T02:06:11.383Z,415.00
2023-04-02T02:06:41.460Z,413.00
2023-04-02T02:07:11.532Z,412.00
2023-04-02T02:07:41.611Z,412.00
2023-04-02T02:08:11.684Z,411.00
2023-04-02T02:08:41.759Z,411.00
2023-04-02T02:09:11.841Z,411.00
2023-04-02T02:09:41.918Z,409.00
2023-04-02T02:10:11.992Z,411.00
2023-04-02T02:10:42.076Z,412.00
2023-04-02T02:11:12.148Z,412.00
2023-04-02T02:11:42.221Z,410.00
2023-04-02T02:12:12.290Z,410.00
2023-04-02T02:12:42.405Z,407.00
2023-04-02T02:13:12.505Z,408.00
2023-04-02T02:13:42.620Z,412.00
2023-04-02T02:14:12.741Z,413.00
2023-04-02T02:14:42.872Z,415.00
2023-04-02T02:15:12.848Z,414.00
2023-04-02T02:15:42.969Z,415.00
2023-04-02T02:16:12.973Z,412.00
2023-04-02T02:16:43.092Z,412.00
2023-04-02T02:17:13.111Z,412.00
2023-04-02T02:17:43.259Z,412.00
2023-04-02T02:18:13.238Z,411.00
2023-04-02T02:18:43.362Z,412.00
2023-04-02T02:19:13.465Z,411.00
2023-04-02T02:19:43.582Z,412.00
2023-04-02T02:20:13.684Z,413.00
2023-04-02T02:20:43.803Z,414.00
2023-04-02T02:21:13.909Z,415.00
2023-04-02T02:21:44.015Z,416.00
2023-04-02T02:22:14.133Z,414.00
2023-04-02T02:22:44.246Z,415.00
2023-04-02T02:23:14.359Z,414.00
2023-04-02T02:23:44.473Z,413.00
2023-04-02T02:24:14.587Z,415.00
2023-04-02T02:24:44.708Z,413.00
2023-04-02T02:25:14.820Z,411.00
2023-04-02T02:25:44.923Z,413.00
2023-04-02T02:26:15.035Z,411.00
2023-04-02T02:26:45.153Z,409.00
2023-04-02T02:27:15.256Z,410.00
2023-04-02T02:27:45.368Z,412.00
2023-04-02T02:28:15.478Z,410.00
2023-04-02T02:28:45.596Z,411.00
2023-04-02T02:29:15.715Z,412.00
2023-04-02T02:29:45.829Z,411.00
2023-04-02T02:30:15.940Z,412.00
2023-04-02T02:30:46.055Z,413.00
2023-04-02T02:31:16.163Z,411.00
2023-04-02T02:31:46.308Z,413.00
2023-04-02T02:32:16.413Z,412.00
2023-04-02T02:32:46.447Z,412.00
2023-04-02T02:33:16.482Z,411.00
2023-04-02T02:33:46.451Z,411.00
2023-04-02T02:34:16.563Z,410.00
2023-04-02T02:34:46.677Z,410.00
2023-04-02T02:35:16.795Z,408.00
2023-04-02T02:35:46.934Z,409.00
2023-04-02T02:36:16.950Z,410.00
2023-04-02T02:36:46.937Z,411.00
2023-04-02T02:37:17.050Z,412.00
2023-04-02T02:37:47.166Z,411.00
2023-04-02T02:38:17.276Z,411.00
2023-04-02T02:38:47.406Z,412.00
2023-04-02T02:39:17.506Z,413.00
2023-04-02T02:39:47.652Z,411.00
2023-04-02T02:40:17.623Z,412.00
2023-04-02T02:40:47.718Z,411.00
2023-04-02T02:41:17.836Z,414.00
2023-04-02T02:41:47.939Z,411.00
2023-04-02T02:42:18.049Z,409.00
2023-04-02T02:42:48.160Z,411.00
2023-04-02T02:43:18.269Z,412.00
2023-04-02T02:43:48.379Z,411.00
2023-04-02T02:44:18.497Z,411.00
2023-04-02T02:44:48.621Z,411.00
2023-04-02T02:45:18.721Z,411.00
2023-04-02T02:45:48.885Z,410.00
2023-04-02T02:46:18.856Z,409.00
2023-04-02T02:46:48.973Z,409.00
2023-04-02T02:47:19.066Z,409.00
2023-04-02T02:47:49.224Z,408.00
2023-04-02T02:48:19.248Z,409.00
2023-04-02T02:48:49.244Z,408.00
2023-04-02T02:49:19.326Z,407.00
2023-04-02T02:49:49.439Z,405.00
2023-04-02T02:50:19.554Z,407.00
2023-04-02T02:50:49.662Z,408.00
2023-04-02T02:51:19.779Z,406.00
2023-04-02T02:51:49.886Z,408.00
2023-04-02T02:52:19.999Z,409.00
2023-04-02T02:52:50.100Z,408.00
2023-04-02T02:53:20.218Z,407.00
2023-04-02T02:53:50.322Z,404.00
2023-04-02T02:54:20.440Z,405.00
2023-04-02T02:54:50.550Z,404.00
2023-04-02T02:55:20.673Z,404.00
2023-04-02T02:55:50.660Z,404.00
2023-04-02T02:56:20.768Z,404.00
2023-04-02T02:56:50.882Z,405.00
2023-04-02T02:57:21.008Z,404.00
2023-04-02T02:57:51.105Z,403.00
2023-04-02T02:58:21.212Z,403.00
2023-04-02T02:58:51.325Z,402.00
2023-04-02T02:59:21.441Z,403.00
2023-04-02T02:59:51.543Z,404.00
2023-04-02T03:00:21.663Z,404.00
2023-04-02T03:00:51.772Z,403.00
2023-04-02T03:01:21.937Z,405.00
2023-04-02T03:01:51.913Z,406.00
2023-04-02T03:03:01.146Z,421.00
2023-04-02T03:03:31.224Z,412.00
2023-04-02T03:04:01.218Z,413.00
2023-04-02T03:04:31.180Z,413.00
2023-04-02T03:05:01.258Z,413.00
2023-04-02T03:05:31.343Z,415.00
2023-04-02T03:06:01.403Z,416.00
2023-04-02T03:06:31.483Z,416.00
2023-04-02T03:07:01.555Z,416.00
2023-04-02T03:07:31.628Z,415.00
2023-04-02T03:08:01.705Z,413.00
2023-04-02T03:08:31.767Z,413.00
2023-04-02T03:09:01.849Z,413.00
2023-04-02T03:09:31.941Z,412.00
2023-04-02T03:10:01.998Z,414.00
2023-04-02T03:10:32.075Z,415.00
2023-04-02T03:11:02.146Z,414.00
2023-04-02T03:11:32.214Z,413.00
2023-04-02T03:12:02.296Z,413.00
2023-04-02T03:12:32.367Z,416.00
2023-04-02T03:13:02.497Z,416.00
2023-04-02T03:13:32.598Z,417.00
2023-04-02T03:14:02.717Z,416.00
2023-04-02T03:14:32.712Z,416.00
2023-04-02T03:15:02.829Z,416.00
2023-04-02T03:15:33.068Z,417.00
2023-04-02T03:16:02.963Z,416.00
2023-04-02T03:16:32.960Z,414.00
2023-04-02T03:17:03.067Z,415.00
2023-04-02T03:17:33.209Z,415.00
2023-04-02T03:18:03.244Z,415.00
2023-04-02T03:18:33.259Z,414.00
2023-04-02T03:19:03.354Z,414.00
2023-04-02T03:19:33.471Z,415.00
2023-04-02T03:20:03.572Z,416.00
2023-04-02T03:20:33.688Z,416.00
2023-04-02T03:21:03.723Z,416.00
2023-04-02T03:21:33.842Z,416.00
2023-04-02T03:22:03.944Z,416.00
2023-04-02T03:22:34.059Z,416.00
2023-04-02T03:23:04.179Z,415.00
2023-04-02T03:23:34.294Z,414.00
2023-04-02T03:24:04.402Z,415.00
2023-04-02T03:24:34.507Z,416.00
2023-04-02T03:25:04.639Z,414.00
2023-04-02T03:25:34.923Z,414.00
2023-04-02T03:26:04.800Z,414.00
2023-04-02T03:26:34.902Z,414.00
2023-04-02T03:27:05.011Z,415.00
2023-04-02T03:27:35.127Z,415.00
2023-04-02T03:28:05.240Z,417.00
2023-04-02T03:28:35.356Z,417.00
2023-04-02T03:29:05.465Z,415.00
2023-04-02T03:29:35.573Z,417.00
2023-04-02T03:30:05.693Z,417.00
2023-04-02T03:30:35.820Z,415.00
2023-04-02T03:31:05.847Z,414.00
2023-04-02T03:31:35.886Z,414.00
2023-04-02T03:32:05.846Z,412.00
2023-04-02T03:32:35.866Z,410.00
2023-04-02T03:33:06.059Z,410.00
2023-04-02T03:33:36.059Z,411.00
2023-04-02T03:34:06.156Z,411.00
2023-04-02T03:34:36.265Z,411.00
2023-04-02T03:35:06.379Z,411.00
2023-04-02T03:35:36.787Z,412.00
2023-04-02T03:36:06.525Z,412.00
2023-04-02T03:36:36.506Z,412.00
2023-04-02T03:37:06.612Z,410.00
2023-04-02T03:37:36.726Z,408.00
2023-04-02T03:38:06.843Z,408.00
2023-04-02T03:38:36.947Z,408.00
2023-04-02T03:39:07.060Z,410.00
2023-04-02T03:39:37.190Z,410.00
2023-04-02T03:40:07.171Z,410.00
2023-04-02T03:40:37.280Z,410.00
2023-04-02T03:41:07.387Z,411.00
2023-04-02T03:41:37.510Z,411.00
2023-04-02T03:42:07.622Z,409.00
2023-04-02T03:42:37.729Z,410.00
2023-04-02T03:43:07.844Z,412.00
2023-04-02T03:43:37.953Z,412.00
2023-04-02T03:44:07.967Z,411.00
2023-04-02T03:45:08.054Z,412.00
2023-04-02T03:45:38.157Z,412.00
2023-04-02T03:46:08.317Z,412.00
2023-04-02T03:46:38.375Z,413.00
2023-04-02T03:47:08.377Z,414.00
2023-04-02T03:47:38.531Z,411.00
2023-04-02T03:48:08.499Z,410.00
2023-04-02T03:48:38.619Z,410.00
2023-04-02T03:49:08.757Z,411.00
2023-04-02T03:49:38.847Z,410.00
2023-04-02T03:50:08.950Z,410.00
2023-04-02T03:50:39.065Z,410.00
2023-04-02T03:51:09.171Z,411.00
2023-04-02T03:51:39.291Z,410.00
2023-04-02T03:52:09.396Z,411.00
2023-04-02T03:52:39.507Z,411.00
2023-04-02T03:53:09.623Z,413.00
2023-04-02T03:53:39.738Z,413.00
2023-04-02T03:54:09.859Z,415.00
2023-04-02T03:54:39.850Z,416.00
2023-04-02T03:55:09.959Z,416.00
2023-04-02T03:55:40.078Z,416.00
2023-04-02T03:56:10.190Z,415.00
2023-04-02T03:56:40.348Z,414.00
2023-04-02T03:57:10.405Z,414.00
2023-04-02T03:57:40.377Z,413.00
2023-04-02T03:58:10.360Z,413.00
2023-04-02T03:58:40.480Z,412.00
2023-04-02T03:59:10.471Z,413.00
2023-04-02T03:59:40.587Z,414.00
2023-04-02T04:00:10.697Z,412.00
2023-04-02T04:00:40.811Z,411.00
2023-04-02T04:01:10.933Z,411.00
2023-04-02T04:01:41.058Z,410.00
2023-04-02T04:02:11.071Z,410.00
2023-04-02T04:02:41.255Z,411.00
2023-04-02T04:03:11.322Z,410.00
2023-04-02T04:03:41.309Z,410.00
2023-04-02T04:04:11.447Z,409.00
2023-04-02T04:04:41.394Z,410.00
2023-04-02T04:05:11.463Z,409.00
2023-04-02T04:05:41.537Z,410.00
2023-04-02T04:06:11.628Z,409.00
2023-04-02T04:06:41.690Z,410.00
2023-04-02T04:07:11.770Z,411.00
2023-04-02T04:07:41.845Z,410.00
2023-04-02T04:08:11.913Z,409.00
2023-04-02T04:08:41.991Z,412.00
2023-04-02T04:09:12.058Z,410.00
2023-04-02T04:09:42.132Z,408.00
2023-04-02T04:10:12.207Z,407.00
2023-04-02T04:10:42.322Z,407.00
2023-04-02T04:11:12.436Z,407.00
2023-04-02T04:11:42.474Z,407.00
2023-04-02T04:12:12.552Z,407.00
2023-04-02T04:12:42.632Z,407.00
2023-04-02T04:13:12.743Z,407.00
2023-04-02T04:13:42.858Z,406.00
2023-04-02T04:14:12.964Z,407.00
2023-04-02T04:14:44.106Z,408.00
2023-04-02T04:15:13.088Z,408.00
2023-04-02T04:15:43.223Z,409.00
2023-04-02T04:16:13.244Z,407.00
2023-04-02T04:16:43.273Z,406.00
2023-04-02T04:17:13.261Z,406.00
2023-04-02T04:17:43.409Z,406.00
2023-04-02T04:18:13.399Z,406.00
2023-04-02T04:18:43.514Z,406.00
2023-04-02T04:19:13.646Z,406.00
2023-04-02T04:19:43.736Z,408.00
2023-04-02T04:20:13.841Z,409.00
2023-04-02T04:20:43.969Z,410.00
2023-04-02T04:21:13.953Z,411.00
2023-04-02T04:21:44.065Z,411.00
2023-04-02T04:22:14.192Z,410.00
2023-04-02T04:22:44.289Z,410.00
2023-04-02T04:23:14.405Z,409.00
2023-04-02T04:23:44.521Z,409.00
2023-04-02T04:24:14.644Z,407.00
2023-04-02T04:24:44.626Z,408.00
2023-04-02T04:25:14.733Z,408.00
2023-04-02T04:25:44.864Z,406.00
2023-04-02T04:26:14.849Z,407.00
2023-04-02T04:26:44.965Z,408.00
2023-04-02T04:27:15.094Z,407.00
2023-04-02T04:27:45.184Z,406.00
2023-04-02T04:28:15.294Z,405.00
2023-04-02T04:28:45.405Z,407.00
2023-04-02T04:29:15.522Z,405.00
2023-04-02T04:29:45.696Z,406.00
2023-04-02T04:30:15.688Z,408.00
2023-04-02T04:30:45.817Z,409.00
2023-04-02T04:31:15.796Z,410.00
2023-04-02T04:31:45.973Z,411.00
2023-04-02T04:32:16.052Z,413.00
2023-04-02T04:32:46.091Z,412.00
2023-04-02T04:33:16.073Z,412.00
2023-04-02T04:33:46.195Z,411.00
2023-04-02T04:34:16.301Z,411.00
2023-04-02T04:34:46.441Z,409.00
2023-04-02T04:35:16.524Z,406.00
2023-04-02T04:35:46.641Z,408.00
2023-04-02T04:36:16.686Z,408.00
2023-04-02T04:36:46.653Z,409.00
2023-04-02T04:37:16.765Z,410.00
2023-04-02T04:37:46.884Z,408.00
2023-04-02T04:38:16.994Z,407.00
2023-04-02T04:38:47.110Z,406.00
2023-04-02T04:39:17.226Z,409.00
2023-04-02T04:39:47.339Z,410.00
2023-04-02T04:40:17.462Z,410.00
2023-04-02T04:40:47.571Z,412.00
2023-04-02T04:41:17.694Z,412.00
2023-04-02T04:41:47.797Z,411.00
2023-04-02T04:42:17.902Z,410.00
2023-04-02T04:42:48.019Z,408.00
2023-04-02T04:43:18.119Z,409.00
2023-04-02T04:43:48.263Z,408.00
2023-04-02T04:44:18.356Z,407.00
2023-04-02T04:44:48.465Z,406.00
2023-04-02T04:45:18.578Z,407.00
2023-04-02T04:45:48.704Z,406.00
2023-04-02T04:46:18.745Z,406.00
2023-04-02T04:46:48.807Z,406.00
2023-04-02T04:47:18.905Z,405.00
2023-04-02T04:47:48.951Z,405.00
2023-04-02T04:48:18.944Z,406.00
2023-04-02T04:48:48.941Z,407.00
2023-04-02T04:49:19.053Z,407.00
2023-04-02T04:49:49.192Z,406.00
2023-04-02T04:50:19.164Z,405.00
2023-04-02T04:50:49.286Z,406.00
2023-04-02T04:51:19.275Z,406.00
2023-04-02T04:51:49.376Z,407.00
2023-04-02T04:52:19.483Z,406.00
2023-04-02T04:52:49.615Z,407.00
2023-04-02T04:53:19.605Z,406.00
2023-04-02T04:53:49.715Z,405.00
2023-04-02T04:54:19.820Z,403.00
2023-04-02T04:54:49.935Z,403.00
2023-04-02T04:55:20.051Z,403.00
2023-04-02T04:55:50.178Z,403.00
2023-04-02T04:56:20.171Z,403.00
2023-04-02T04:56:50.299Z,403.00
2023-04-02T04:57:20.443Z,402.00
2023-04-02T04:57:50.473Z,403.00
2023-04-02T04:58:20.583Z,402.00
2023-04-02T04:58:50.697Z,401.00
2023-04-02T04:59:20.819Z,401.00
2023-04-02T04:59:50.920Z,401.00
2023-04-02T05:00:21.040Z,400.00
2023-04-02T05:00:51.159Z,398.00
2023-04-02T05:01:21.194Z,398.00
2023-04-02T05:01:51.281Z,399.00
2023-04-02T05:02:21.175Z,400.00
2023-04-02T05:02:51.301Z,398.00
2023-04-02T05:03:21.371Z,396.00
2023-04-02T05:03:51.447Z,396.00
2023-04-02T05:04:21.590Z,399.00
2023-04-02T05:04:51.575Z,400.00
2023-04-02T05:05:21.634Z,399.00
2023-04-02T05:05:51.698Z,400.00
2023-04-02T05:06:21.764Z,401.00
2023-04-02T05:06:51.845Z,400.00
2023-04-02T05:07:21.908Z,401.00
2023-04-02T05:07:51.980Z,403.00
2023-04-02T05:08:22.062Z,405.00
2023-04-02T05:08:52.123Z,404.00
2023-04-02T05:09:22.200Z,404.00
2023-04-02T05:09:52.268Z,403.00
2023-04-02T05:10:22.345Z,402.00
2023-04-02T05:10:52.424Z,403.00
2023-04-02T05:11:22.491Z,404.00
2023-04-02T05:11:52.565Z,404.00
2023-04-02T05:12:22.633Z,403.00
2023-04-02T05:12:52.734Z,402.00
2023-04-02T05:13:22.841Z,402.00
2023-04-02T05:13:52.958Z,402.00
2023-04-02T05:14:23.073Z,403.00
2023-04-02T05:14:53.177Z,404.00
2023-04-02T05:15:23.294Z,403.00
2023-04-02T05:15:53.435Z,403.00
2023-04-02T05:16:23.447Z,405.00
2023-04-02T05:16:53.426Z,406.00
2023-04-02T05:17:23.648Z,405.00
2023-04-02T05:17:53.710Z,405.00
2023-04-02T05:18:23.705Z,405.00
2023-04-02T05:18:53.826Z,407.00
2023-04-02T05:19:24.107Z,407.00
2023-04-02T05:19:53.961Z,408.00
2023-04-02T05:20:24.106Z,408.00
2023-04-02T05:20:54.072Z,409.00
2023-04-02T05:21:24.186Z,409.00
2023-04-02T05:21:54.292Z,409.00
2023-04-02T05:22:24.396Z,408.00
2023-04-02T05:22:54.508Z,408.00
2023-04-02T05:23:24.617Z,409.00
2023-04-02T05:23:54.724Z,407.00
2023-04-02T05:24:24.845Z,407.00
2023-04-02T05:24:54.951Z,407.00
2023-04-02T05:25:25.066Z,408.00
2023-04-02T05:25:55.188Z,407.00
2023-04-02T05:26:25.297Z,408.00
2023-04-02T05:26:55.443Z,407.00
2023-04-02T05:27:25.537Z,408.00
2023-04-02T05:27:55.656Z,410.00
2023-04-02T05:28:25.749Z,409.00
2023-04-02T05:28:55.862Z,411.00
2023-04-02T05:29:25.977Z,411.00
2023-04-02T05:29:55.963Z,411.00
2023-04-02T05:30:26.076Z,410.00
2023-04-02T05:30:56.218Z,411.00
2023-04-02T05:31:26.312Z,410.00
2023-04-02T05:31:56.304Z,410.00
2023-04-02T05:32:26.425Z,407.00
2023-04-02T05:32:56.603Z,406.00
2023-04-02T05:33:26.594Z,407.00
2023-04-02T05:33:56.702Z,405.00
2023-04-02T05:34:26.827Z,406.00
2023-04-02T05:34:56.938Z,406.00
2023-04-02T05:35:27.064Z,406.00
2023-04-02T05:35:57.211Z,406.00
2023-04-02T05:36:27.223Z,407.00
2023-04-02T05:36:57.220Z,406.00
2023-04-02T05:37:27.339Z,405.00
2023-04-02T05:37:57.441Z,404.00
2023-04-02T05:38:27.617Z,405.00
2023-04-02T05:38:57.582Z,404.00
2023-04-02T05:39:27.736Z,406.00
2023-04-02T05:39:57.704Z,405.00
2023-04-02T05:40:27.801Z,403.00
2023-04-02T05:40:57.911Z,403.00
2023-04-02T05:41:28.029Z,404.00
2023-04-02T05:41:58.139Z,405.00
2023-04-02T05:42:28.252Z,406.00
2023-04-02T05:42:58.370Z,408.00
2023-04-02T05:43:28.486Z,409.00
2023-04-02T05:43:58.603Z,407.00
2023-04-02T05:44:28.721Z,406.00
2023-04-02T05:44:58.711Z,408.00
2023-04-02T05:45:28.818Z,408.00
2023-04-02T05:45:58.934Z,407.00
2023-04-02T05:46:29.054Z,406.00
2023-04-02T05:46:59.134Z,405.00
2023-04-02T05:47:29.170Z,406.00
2023-04-02T05:47:59.252Z,407.00
2023-04-02T05:48:29.226Z,406.00
2023-04-02T05:48:59.341Z,407.00
2023-04-02T05:49:29.456Z,406.00
2023-04-02T05:49:59.566Z,406.00
2023-04-02T05:50:29.690Z,405.00
2023-04-02T05:50:59.826Z,405.00
2023-04-02T05:51:29.796Z,405.00
2023-04-02T05:51:59.901Z,405.00
2023-04-02T05:52:30.015Z,406.00
2023-04-02T05:53:00.133Z,408.00
2023-04-02T05:53:30.230Z,407.00
2023-04-02T05:54:00.343Z,408.00
2023-04-02T05:54:30.454Z,410.00
2023-04-02T05:55:00.451Z,412.00
2023-04-02T05:55:30.564Z,410.00
2023-04-02T05:56:00.678Z,411.00
2023-04-02T05:56:30.783Z,410.00
2023-04-02T05:57:00.933Z,410.00
2023-04-02T05:57:42.814Z,410.00
2023-04-02T05:58:21.197Z,407.00
2023-04-02T05:58:36.388Z,408.00
2023-04-02T05:59:00.965Z,406.00
2023-04-02T05:59:30.977Z,407.00
2023-04-02T06:00:01.085Z,406.00
2023-04-02T06:00:31.197Z,407.00
2023-04-02T06:01:01.190Z,406.00
2023-04-02T06:01:31.295Z,406.00
2023-04-02T06:02:01.477Z,407.00
2023-04-02T06:02:31.629Z,408.00
2023-04-02T06:03:01.601Z,406.00
2023-04-02T06:03:31.590Z,406.00
2023-04-02T06:04:01.648Z,405.00
2023-04-02T06:04:31.603Z,405.00
2023-04-02T06:05:01.664Z,405.00
2023-04-02T06:05:31.738Z,403.00
2023-04-02T06:06:01.829Z,403.00
2023-04-02T06:06:31.930Z,403.00
2023-04-02T06:07:01.988Z,402.00
2023-04-02T06:07:32.057Z,401.00
2023-04-02T06:08:02.125Z,400.00
2023-04-02T06:08:32.198Z,400.00
2023-04-02T06:09:02.280Z,402.00
2023-04-02T06:09:32.341Z,402.00
2023-04-02T06:10:02.412Z,402.00
2023-04-02T06:10:32.488Z,401.00
2023-04-02T06:11:02.574Z,401.00
2023-04-02T06:11:32.649Z,400.00
2023-04-02T06:12:02.724Z,399.00
2023-04-02T06:12:32.796Z,397.00
2023-04-02T06:13:02.905Z,397.00
2023-04-02T06:13:33.021Z,398.00
2023-04-02T06:14:03.128Z,397.00
2023-04-02T06:14:33.239Z,398.00
2023-04-02T06:15:03.361Z,397.00
2023-04-02T06:15:33.681Z,397.00
2023-04-02T06:16:03.559Z,398.00
2023-04-02T06:16:33.610Z,399.00
2023-04-02T06:17:03.668Z,399.00
2023-04-02T06:17:33.761Z,402.00